createdAt,value
2022-10-19T00:01:07.926Z,99546.97
2022-10-19T00:03:35.441Z,99547.53
2022-10-19T00:06:15.854Z,99549.16
2022-10-19T00:08:43.041Z,99546.53
2022-10-19T00:11:09.716Z,99552.56
2022-10-19T00:13:36.728Z,99558.31
2022-10-19T00:16:11.376Z,99569.31
2022-10-19T00:18:39.301Z,99553.53
2022-10-19T00:21:09.049Z,99564.75
2022-10-19T00:23:35.997Z,99564.22
2022-10-19T00:26:03.397Z,99558.25
2022-10-19T00:28:30.043Z,99557.19
2022-10-19T00:30:56.487Z,99565.69
2022-10-19T00:33:22.892Z,99560.53
2022-10-19T00:35:51.076Z,99556.63
2022-10-19T00:38:18.640Z,99556.84
2022-10-19T00:40:45.892Z,99563.03
2022-10-19T00:43:19.274Z,99553.16
2022-10-19T00:45:45.980Z,99559.63
2022-10-19T00:48:17.184Z,99557.44
2022-10-19T00:50:45.688Z,99553.00
2022-10-19T00:53:12.301Z,99552.13
2022-10-19T00:55:39.631Z,99555.03
2022-10-19T00:58:06.069Z,99553.66
2022-10-19T01:00:33.986Z,99554.97
2022-10-19T01:03:01.127Z,99560.13
2022-10-19T01:05:28.547Z,99548.41
2022-10-19T01:07:56.976Z,99552.75
2022-10-19T01:10:32.723Z,99557.13
2022-10-19T01:13:23.139Z,99561.47
2022-10-19T01:16:02.392Z,99559.31
2022-10-19T01:18:55.295Z,99554.41
2022-10-19T01:21:26.137Z,99552.75
2022-10-19T01:24:04.548Z,99555.47
2022-10-19T01:26:42.046Z,99546.78
2022-10-19T01:29:32.571Z,99547.59
2022-10-19T01:32:23.925Z,99543.84
2022-10-19T01:35:12.453Z,99543.84
2022-10-19T01:37:48.684Z,99539.69
2022-10-19T01:40:26.746Z,99534.84
2022-10-19T01:43:18.103Z,99534.53
2022-10-19T01:45:48.671Z,99530.91
2022-10-19T01:48:22.886Z,99528.78
2022-10-19T01:50:57.784Z,99529.88
2022-10-19T01:53:26.417Z,99523.94
2022-10-19T01:55:55.050Z,99519.84
2022-10-19T01:58:27.949Z,99517.94
2022-10-19T02:00:57.133Z,99519.03
2022-10-19T02:03:25.767Z,99519.03
2022-10-19T02:05:54.031Z,99510.34
2022-10-19T02:08:27.526Z,99510.50
2022-10-19T02:10:56.411Z,99501.38
2022-10-19T02:13:24.584Z,99505.22
2022-10-19T02:15:54.684Z,99507.94
2022-10-19T02:18:28.419Z,99502.97
2022-10-19T02:20:55.535Z,99503.78
2022-10-19T02:23:25.765Z,99504.59
2022-10-19T02:25:52.720Z,99498.03
2022-10-19T02:28:19.811Z,99498.56
2022-10-19T02:30:46.731Z,99499.13
2022-10-19T02:33:13.479Z,99494.28
2022-10-19T02:35:40.436Z,99491.84
2022-10-19T02:38:10.699Z,99491.56
2022-10-19T02:40:41.866Z,99488.81
2022-10-19T02:43:13.890Z,99487.78
2022-10-19T02:45:54.064Z,99485.34
2022-10-19T02:48:24.806Z,99485.34
2022-10-19T02:50:52.048Z,99486.16
2022-10-19T02:53:18.751Z,99483.94
2022-10-19T02:55:47.979Z,99481.75
2022-10-19T02:58:14.437Z,99484.69
2022-10-19T03:00:41.141Z,99484.91
2022-10-19T03:03:07.631Z,99478.03
2022-10-19T03:05:33.977Z,99469.03
2022-10-19T03:08:00.358Z,99480.47
2022-10-19T03:10:26.844Z,99473.38
2022-10-19T03:12:53.224Z,99469.03
2022-10-19T03:15:19.760Z,99469.03
2022-10-19T03:17:46.134Z,99463.25
2022-10-19T03:20:12.523Z,99466.22
2022-10-19T03:22:38.857Z,99462.38
2022-10-19T03:25:05.647Z,99459.66
2022-10-19T03:27:32.458Z,99455.31
2022-10-19T03:30:00.105Z,99460.75
2022-10-19T03:32:26.709Z,99455.31
2022-10-19T03:34:53.098Z,99459.66
2022-10-19T03:37:19.496Z,99454.69
2022-10-19T03:39:45.878Z,99452.50
2022-10-19T03:42:12.224Z,99454.13
2022-10-19T03:44:38.570Z,99455.72
2022-10-19T03:47:04.906Z,99454.31
2022-10-19T03:49:31.286Z,99458.38
2022-10-19T03:51:57.599Z,99447.47
2022-10-19T03:54:27.217Z,99449.06
2022-10-19T03:56:53.932Z,99455.34
2022-10-19T03:59:20.326Z,99452.91
2022-10-19T04:01:46.732Z,99449.66
2022-10-19T04:04:16.578Z,99450.47
2022-10-19T04:06:45.036Z,99453.50
2022-10-19T04:09:14.076Z,99452.50
2022-10-19T04:11:41.301Z,99448.22
2022-10-19T04:16:39.479Z,99450.97
2022-10-19T04:19:05.893Z,99452.97
2022-10-19T04:21:34.907Z,99452.53
2022-10-19T04:24:08.051Z,99451.22
2022-10-19T04:26:38.794Z,99457.25
2022-10-19T04:29:05.553Z,99455.44
2022-10-19T04:31:32.007Z,99453.25
2022-10-19T04:33:58.362Z,99450.03
2022-10-19T04:36:24.774Z,99452.25
2022-10-19T04:38:51.469Z,99458.78
2022-10-19T04:41:20.020Z,99455.56
2022-10-19T04:43:47.765Z,99455.03
2022-10-19T04:46:17.007Z,99463.28
2022-10-19T04:48:46.131Z,99463.09
2022-10-19T04:51:13.291Z,99461.75
2022-10-19T04:53:41.107Z,99451.94
2022-10-19T04:56:11.712Z,99456.88
2022-10-19T04:58:38.194Z,99453.41
2022-10-19T05:01:13.826Z,99455.91
2022-10-19T05:03:40.465Z,99458.94
2022-10-19T05:06:08.121Z,99456.50
2022-10-19T05:08:35.036Z,99453.78
2022-10-19T05:11:04.016Z,99454.88
2022-10-19T05:13:32.757Z,99455.44
2022-10-19T05:16:01.070Z,99456.88
2022-10-19T05:18:27.894Z,99457.66
2022-10-19T05:21:23.479Z,99455.75
2022-10-19T05:23:54.536Z,99455.44
2022-10-19T05:26:26.299Z,99447.28
2022-10-19T05:28:57.910Z,99453.25
2022-10-19T05:31:28.043Z,99450.25
2022-10-19T05:33:58.432Z,99453.72
2022-10-19T05:36:34.251Z,99454.72
2022-10-19T05:39:04.395Z,99453.63
2022-10-19T05:41:30.799Z,99453.84
2022-10-19T05:43:59.510Z,99451.94
2022-10-19T05:46:27.512Z,99447.59
2022-10-19T05:48:56.123Z,99444.88
2022-10-19T05:51:23.904Z,99442.66
2022-10-19T05:53:50.761Z,99446.72
2022-10-19T05:56:20.600Z,99449.16
2022-10-19T05:58:47.990Z,99449.66
2022-10-19T06:01:15.344Z,99461.88
2022-10-19T06:03:41.862Z,99453.44
2022-10-19T06:06:09.385Z,99456.66
2022-10-19T06:08:36.686Z,99459.09
2022-10-19T06:11:11.428Z,99464.53
2022-10-19T06:13:39.121Z,99465.34
2022-10-19T06:16:07.319Z,99470.22
2022-10-19T06:18:33.812Z,99464.47
2022-10-19T06:21:08.854Z,99466.97
2022-10-19T06:23:35.783Z,99459.31
2022-10-19T06:26:04.592Z,99460.13
2022-10-19T06:28:31.249Z,99456.28
2022-10-19T06:30:58.698Z,99463.38
2022-10-19T06:33:26.743Z,99465.59
2022-10-19T06:35:53.218Z,99459.84
2022-10-19T06:38:19.647Z,99471.28
2022-10-19T06:40:46.203Z,99470.72
2022-10-19T06:43:12.574Z,99473.94
2022-10-19T06:45:39.011Z,99474.44
2022-10-19T06:48:07.661Z,99479.84
2022-10-19T06:50:35.249Z,99481.09
2022-10-19T06:53:01.638Z,99479.91
2022-10-19T06:55:28.068Z,99473.03
2022-10-19T06:57:54.455Z,99475.25
2022-10-19T07:00:20.883Z,99465.94
2022-10-19T07:02:47.244Z,99468.09
2022-10-19T07:05:13.720Z,99465.38
2022-10-19T07:07:40.133Z,99467.56
2022-10-19T07:10:06.828Z,99467.06
2022-10-19T07:12:33.328Z,99463.81
2022-10-19T07:15:00.839Z,99473.13
2022-10-19T07:17:27.205Z,99473.41
2022-10-19T07:19:53.666Z,99477.47
2022-10-19T07:22:25.660Z,99476.34
2022-10-19T07:24:54.716Z,99473.03
2022-10-19T07:27:21.163Z,99478.91
2022-10-19T07:29:47.623Z,99481.78
2022-10-19T07:32:13.997Z,99480.81
2022-10-19T07:34:40.396Z,99483.97
2022-10-19T07:37:06.844Z,99488.31
2022-10-19T07:39:34.641Z,99472.72
2022-10-19T07:42:01.032Z,99480.13
2022-10-19T07:44:27.847Z,99482.03
2022-10-19T07:46:54.254Z,99480.66
2022-10-19T07:49:20.762Z,99486.00
2022-10-19T07:51:47.229Z,99478.22
2022-10-19T07:54:13.889Z,99482.72
2022-10-19T07:56:40.439Z,99477.97
2022-10-19T07:59:07.062Z,99483.03
2022-10-19T08:01:38.193Z,99479.78
2022-10-19T08:06:51.185Z,99479.53
2022-10-19T08:09:40.141Z,99483.78
2022-10-19T08:12:06.460Z,99481.97
2022-10-19T08:14:32.975Z,99476.19
2022-10-19T08:16:59.890Z,99484.00
2022-10-19T08:19:26.265Z,99483.28
2022-10-19T08:21:52.701Z,99488.25
2022-10-19T08:24:20.373Z,99485.69
2022-10-19T08:26:47.685Z,99485.41
2022-10-19T08:29:18.312Z,99482.16
2022-10-19T08:31:46.452Z,99476.28
2022-10-19T08:34:13.859Z,99477.72
2022-10-19T08:39:12.742Z,99473.25
2022-10-19T08:44:41.355Z,99473.25
2022-10-19T08:47:35.638Z,99487.63
2022-10-19T08:50:03.697Z,99489.16
2022-10-19T08:52:34.580Z,99488.66
2022-10-19T08:55:13.083Z,99474.91
2022-10-19T08:57:53.441Z,99483.09
2022-10-19T09:00:34.089Z,99480.94
2022-10-19T09:03:37.752Z,99485.63
2022-10-19T09:06:37.105Z,99484.41
2022-10-19T09:09:05.349Z,99488.03
2022-10-19T09:11:38.380Z,99479.84
2022-10-19T09:14:14.990Z,99480.97
2022-10-19T09:16:42.579Z,99473.25
2022-10-19T09:19:26.189Z,99474.28
2022-10-19T09:22:04.330Z,99470.81
2022-10-19T09:24:43.841Z,99470.41
2022-10-19T09:27:22.398Z,99465.00
2022-10-19T09:29:57.884Z,99463.50
2022-10-19T09:32:30.890Z,99465.44
2022-10-19T09:35:02.353Z,99468.56
2022-10-19T09:40:01.760Z,99459.47
2022-10-19T09:42:33.297Z,99457.75
2022-10-19T09:45:14.026Z,99458.78
2022-10-19T09:47:45.829Z,99457.75
2022-10-19T09:50:26.651Z,99461.72
2022-10-19T09:52:56.235Z,99462.94
2022-10-19T09:55:34.057Z,99456.50
2022-10-19T09:58:03.922Z,99468.03
2022-10-19T10:00:42.780Z,99465.31
2022-10-19T10:03:22.362Z,99466.41
2022-10-19T10:05:49.565Z,99453.56
2022-10-19T10:08:22.512Z,99459.41
2022-10-19T10:11:11.218Z,99454.31
2022-10-19T10:13:41.589Z,99451.47
2022-10-19T10:16:11.363Z,99448.63
2022-10-19T10:18:50.451Z,99453.47
2022-10-19T10:21:32.435Z,99458.72
2022-10-19T10:24:20.474Z,99454.47
2022-10-19T10:26:49.626Z,99449.34
2022-10-19T10:29:22.217Z,99448.22
2022-10-19T10:32:12.239Z,99444.47
2022-10-19T10:35:01.325Z,99443.69
2022-10-19T10:37:47.671Z,99446.13
2022-10-19T10:40:27.933Z,99441.25
2022-10-19T10:42:57.683Z,99434.16
2022-10-19T10:45:29.120Z,99424.81
2022-10-19T10:47:56.877Z,99424.22
2022-10-19T10:50:31.259Z,99418.16
2022-10-19T10:53:34.601Z,99413.47
2022-10-19T10:56:01.590Z,99411.59
2022-10-19T10:58:31.727Z,99411.97
2022-10-19T11:01:06.678Z,99403.34
2022-10-19T11:03:37.778Z,99400.69
2022-10-19T11:06:04.314Z,99406.34
2022-10-19T11:08:49.245Z,99400.38
2022-10-19T11:11:28.344Z,99402.00
2022-10-19T11:14:08.247Z,99401.84
2022-10-19T11:16:39.841Z,99400.06
2022-10-19T11:19:11.701Z,99401.34
2022-10-19T11:21:44.225Z,99396.69
2022-10-19T11:24:15.613Z,99386.19
2022-10-19T11:27:17.600Z,99375.56
2022-10-19T11:30:10.660Z,99372.00
2022-10-19T11:33:05.857Z,99369.22
2022-10-19T11:35:36.112Z,99368.06
2022-10-19T11:38:29.557Z,99360.78
2022-10-19T11:41:21.712Z,99362.16
2022-10-19T11:44:14.449Z,99347.09
2022-10-19T11:47:17.824Z,99346.50
2022-10-19T11:49:59.280Z,99338.50
2022-10-19T11:52:51.568Z,99330.69
2022-10-19T11:55:37.886Z,99327.78
2022-10-19T11:58:32.377Z,99321.72
2022-10-19T12:01:39.297Z,99317.69
2022-10-19T12:04:11.614Z,99314.25
2022-10-19T12:06:55.056Z,99315.44
2022-10-19T12:09:56.739Z,99315.97
2022-10-19T12:12:43.409Z,99308.38
2022-10-19T12:15:21.419Z,99311.13
2022-10-19T12:17:51.600Z,99307.38
2022-10-19T12:20:25.851Z,99312.97
2022-10-19T12:22:52.643Z,99307.56
2022-10-19T12:25:19.986Z,99307.63
2022-10-19T12:27:49.058Z,99298.00
2022-10-19T12:30:19.740Z,99298.72
2022-10-19T12:33:23.158Z,99289.41
2022-10-19T12:36:01.595Z,99293.41
2022-10-19T12:38:50.821Z,99285.22
2022-10-19T12:41:18.732Z,99272.59
2022-10-19T12:44:02.657Z,99280.19
2022-10-19T12:46:48.354Z,99274.75
2022-10-19T12:49:28.007Z,99275.91
2022-10-19T12:51:56.192Z,99273.28
2022-10-19T12:54:25.738Z,99266.28
2022-10-19T12:56:54.586Z,99270.41
2022-10-19T12:59:44.807Z,99260.59
2022-10-19T13:02:29.265Z,99258.28
2022-10-19T13:04:55.825Z,99255.16
2022-10-19T13:07:26.509Z,99253.47
2022-10-19T13:10:18.805Z,99244.63
2022-10-19T13:12:47.291Z,99240.22
2022-10-19T13:15:40.069Z,99242.41
2022-10-19T13:18:34.098Z,99245.63
2022-10-19T13:21:02.540Z,99238.69
2022-10-19T13:23:30.046Z,99236.44
2022-10-19T13:26:32.835Z,99239.84
2022-10-19T13:28:59.493Z,99231.03
2022-10-19T13:31:32.936Z,99229.56
2022-10-19T13:33:59.461Z,99220.41
2022-10-19T13:36:26.664Z,99229.06
2022-10-19T13:38:59.048Z,99222.63
2022-10-19T13:41:46.843Z,99211.06
2022-10-19T13:44:13.868Z,99211.91
2022-10-19T13:46:58.535Z,99214.97
2022-10-19T13:49:46.974Z,99220.53
2022-10-19T13:52:48.758Z,99210.38
2022-10-19T13:55:21.101Z,99210.88
2022-10-19T13:58:13.813Z,99197.19
2022-10-19T14:01:01.980Z,99194.38
2022-10-19T14:03:43.619Z,99193.13
2022-10-19T14:06:24.716Z,99202.69
2022-10-19T14:09:12.262Z,99192.25
2022-10-19T14:11:42.184Z,99193.69
2022-10-19T14:14:11.625Z,99179.28
2022-10-19T14:16:57.100Z,99177.34
2022-10-19T14:19:47.975Z,99177.69
2022-10-19T14:22:23.551Z,99172.50
2022-10-19T14:24:50.088Z,99169.16
2022-10-19T14:27:24.785Z,99168.22
2022-10-19T14:29:53.372Z,99153.03
2022-10-19T14:32:29.500Z,99155.06
2022-10-19T14:37:36.806Z,99147.25
2022-10-19T14:40:26.608Z,99142.97
2022-10-19T14:42:56.708Z,99144.47
2022-10-19T14:45:26.564Z,99158.56
2022-10-19T14:47:57.718Z,99162.75
2022-10-19T14:51:05.815Z,99150.78
2022-10-19T14:53:34.957Z,99149.38
2022-10-19T14:56:15.494Z,99152.59
2022-10-19T14:58:49.046Z,99151.44
2022-10-19T15:01:18.477Z,99152.41
2022-10-19T15:03:46.187Z,99153.22
2022-10-19T15:06:25.562Z,99146.56
2022-10-19T15:08:55.476Z,99150.13
2022-10-19T15:11:29.774Z,99145.31
2022-10-19T15:14:21.967Z,99142.56
2022-10-19T15:16:56.736Z,99141.75
2022-10-19T15:19:30.189Z,99143.53
2022-10-19T15:22:09.215Z,99140.84
2022-10-19T15:24:38.101Z,99132.66
2022-10-19T15:27:29.967Z,99132.19
2022-10-19T15:29:59.335Z,99134.00
2022-10-19T15:32:31.871Z,99131.91
2022-10-19T15:34:58.933Z,99136.13
2022-10-19T15:39:56.758Z,99129.53
2022-10-19T15:42:30.833Z,99131.66
2022-10-19T15:44:57.237Z,99124.91
2022-10-19T15:47:34.002Z,99118.63
2022-10-19T15:50:30.603Z,99124.16
2022-10-19T15:53:03.469Z,99109.94
2022-10-19T15:58:25.653Z,99112.84
2022-10-19T16:01:29.152Z,99118.50
2022-10-19T16:04:04.028Z,99121.56
2022-10-19T16:06:50.882Z,99117.56
2022-10-19T16:09:32.799Z,99108.81
2022-10-19T16:12:27.345Z,99109.50
2022-10-19T16:15:26.261Z,99101.25
2022-10-19T16:18:04.269Z,99107.38
2022-10-19T16:20:38.565Z,99101.41
2022-10-19T16:23:07.114Z,99102.09
2022-10-19T16:28:37.129Z,99113.19
2022-10-19T16:33:56.355Z,99102.53
2022-10-19T16:36:22.860Z,99106.75
2022-10-19T16:38:49.260Z,99106.28
2022-10-19T16:41:16.678Z,99104.50
2022-10-19T16:43:43.421Z,99098.69
2022-10-19T16:46:11.323Z,99103.22
2022-10-19T16:48:38.224Z,99100.13
2022-10-19T16:51:07.690Z,99103.66
2022-10-19T16:53:35.030Z,99104.94
2022-10-19T16:56:06.674Z,99103.97
2022-10-19T16:58:33.142Z,99109.09
2022-10-19T17:01:02.457Z,99107.63
2022-10-19T17:03:28.880Z,99106.16
2022-10-19T17:05:55.352Z,99111.94
2022-10-19T17:08:23.927Z,99103.56
2022-10-19T17:10:57.171Z,99103.41
2022-10-19T17:13:23.726Z,99104.81
2022-10-19T17:15:50.077Z,99108.19
2022-10-19T17:18:16.472Z,99105.59
2022-10-19T17:20:42.866Z,99099.97
2022-10-19T17:23:09.485Z,99106.06
2022-10-19T17:25:36.670Z,99108.63
2022-10-19T17:28:03.098Z,99112.63
2022-10-19T17:30:29.451Z,99116.78
2022-10-19T17:32:55.825Z,99115.00
2022-10-19T17:35:22.599Z,99101.94
2022-10-19T17:37:48.992Z,99106.44
2022-10-19T17:40:15.472Z,99106.09
2022-10-19T17:42:41.875Z,99106.84
2022-10-19T17:45:08.726Z,99108.59
2022-10-19T17:47:35.285Z,99112.25
2022-10-19T17:50:01.932Z,99109.97
2022-10-19T17:52:28.337Z,99101.59
2022-10-19T17:55:13.390Z,99107.38
2022-10-19T17:57:40.116Z,99108.00
2022-10-19T18:00:07.354Z,99113.75
2022-10-19T18:02:35.407Z,99119.53
2022-10-19T18:05:02.521Z,99121.38
2022-10-19T18:07:33.969Z,99118.16
2022-10-19T18:10:03.733Z,99125.88
2022-10-19T18:12:30.280Z,99121.66
2022-10-19T18:14:58.276Z,99129.31
2022-10-19T18:22:27.275Z,99125.34
2022-10-19T18:24:53.708Z,99127.47
2022-10-19T18:27:20.165Z,99124.13
2022-10-19T18:29:46.597Z,99124.31
2022-10-19T18:32:13.023Z,99120.47
2022-10-19T18:34:39.399Z,99126.22
2022-10-19T18:37:07.134Z,99118.34
2022-10-19T18:39:33.500Z,99113.81
2022-10-19T18:42:00.017Z,99111.69
2022-10-19T18:44:29.482Z,99107.34
2022-10-19T18:46:57.959Z,99105.25
2022-10-19T18:49:27.437Z,99109.38
2022-10-19T18:51:55.702Z,99110.81
2022-10-19T18:54:24.269Z,99104.84
2022-10-19T18:56:50.690Z,99104.97
2022-10-19T18:59:17.494Z,99099.53
2022-10-19T19:01:44.009Z,99099.00
2022-10-19T19:04:10.736Z,99096.25
2022-10-19T19:06:38.287Z,99088.72
2022-10-19T19:09:08.522Z,99091.53
2022-10-19T19:11:38.183Z,99091.06
2022-10-19T19:14:08.206Z,99087.84
2022-10-19T19:16:37.117Z,99087.84
2022-10-19T19:19:04.881Z,99083.50
2022-10-19T19:21:32.157Z,99079.44
2022-10-19T19:24:01.857Z,99082.47
2022-10-19T19:26:31.365Z,99083.22
2022-10-19T19:28:57.953Z,99078.97
2022-10-19T19:31:25.658Z,99079.41
2022-10-19T19:33:52.120Z,99081.63
2022-10-19T19:36:19.135Z,99075.16
2022-10-19T19:38:46.178Z,99075.16
2022-10-19T19:41:14.699Z,99068.91
2022-10-19T19:43:41.450Z,99081.41
2022-10-19T19:46:12.864Z,99073.72
2022-10-19T19:48:40.885Z,99076.66
2022-10-19T19:51:19.007Z,99061.41
2022-10-19T19:53:46.588Z,99066.56
2022-10-19T19:56:14.212Z,99070.41
2022-10-19T19:58:41.494Z,99066.97
2022-10-19T20:01:20.372Z,99056.97
2022-10-19T20:03:47.757Z,99057.38
2022-10-19T20:06:17.885Z,99054.75
2022-10-19T20:08:46.934Z,99052.94
2022-10-19T20:11:16.050Z,99046.97
2022-10-19T20:13:45.001Z,99051.41
2022-10-19T20:16:25.117Z,99062.63
2022-10-19T20:19:07.133Z,99057.78
2022-10-19T20:21:33.689Z,99055.19
2022-10-19T20:24:00.816Z,99053.34
2022-10-19T20:26:28.096Z,99052.34
2022-10-19T20:28:55.098Z,99047.50
2022-10-19T20:31:22.198Z,99050.22
2022-10-19T20:33:49.251Z,99038.81
2022-10-19T20:36:18.627Z,99044.28
2022-10-19T20:38:50.626Z,99047.59
2022-10-19T20:41:18.572Z,99041.16
2022-10-19T20:43:45.374Z,99042.22
2022-10-19T20:46:17.785Z,99045.28
2022-10-19T20:48:45.570Z,99042.84
2022-10-19T20:51:14.104Z,99038.03
2022-10-19T20:53:41.535Z,99041.31
2022-10-19T20:56:10.101Z,99030.25
2022-10-19T20:58:40.157Z,99030.34
2022-10-19T21:01:14.297Z,99028.72
2022-10-19T21:03:53.139Z,99023.84
2022-10-19T21:06:21.259Z,99029.00
2022-10-19T21:08:48.125Z,99028.50
2022-10-19T21:11:19.745Z,99037.47
2022-10-19T21:13:47.405Z,99031.53
2022-10-19T21:16:16.350Z,99033.94
2022-10-19T21:18:44.243Z,99039.41
2022-10-19T21:21:22.702Z,99030.22
2022-10-19T21:23:53.807Z,99032.53
2022-10-19T21:26:20.699Z,99028.19
2022-10-19T21:28:48.647Z,99025.44
2022-10-19T21:31:16.613Z,99020.00
2022-10-19T21:33:43.937Z,99019.50
2022-10-19T21:36:11.617Z,99031.03
2022-10-19T21:38:38.400Z,99026.78
2022-10-19T21:41:20.967Z,99022.94
2022-10-19T21:43:50.533Z,99026.78
2022-10-19T21:46:19.224Z,99032.53
2022-10-19T21:48:45.692Z,99033.34
2022-10-19T21:51:14.774Z,99033.09
2022-10-19T21:53:41.125Z,99026.34
2022-10-19T21:56:07.451Z,99015.25
2022-10-19T21:58:33.846Z,99017.47
2022-10-19T22:01:07.800Z,99008.47
2022-10-19T22:03:34.664Z,98997.09
2022-10-19T22:06:01.045Z,98999.81
2022-10-19T22:08:27.504Z,99002.81
2022-10-19T22:11:04.891Z,98994.94
2022-10-19T22:13:31.285Z,98986.28
2022-10-19T22:16:03.190Z,98987.41
2022-10-19T22:18:29.619Z,98986.88
2022-10-19T22:20:56.031Z,98993.72
2022-10-19T22:23:24.325Z,98998.88
2022-10-19T22:25:50.693Z,98996.75
2022-10-19T22:28:17.228Z,98992.19
2022-10-19T22:30:45.054Z,98991.44
2022-10-19T22:33:11.410Z,98991.97
2022-10-19T22:35:37.798Z,98988.22
2022-10-19T22:38:04.127Z,98995.06
2022-10-19T22:40:30.471Z,98996.16
2022-10-19T22:42:56.828Z,98999.72
2022-10-19T22:45:23.499Z,98997.50
2022-10-19T22:47:50.078Z,98994.28
2022-10-19T22:50:19.357Z,98988.81
2022-10-19T22:52:45.796Z,98986.09
2022-10-19T22:55:12.299Z,98985.81
2022-10-19T22:57:38.867Z,98980.13
2022-10-19T23:00:05.780Z,98978.53
2022-10-19T23:02:32.382Z,98970.44
2022-10-19T23:04:59.280Z,98957.94
2022-10-19T23:07:25.714Z,98965.59
2022-10-19T23:09:55.674Z,98959.94
2022-10-19T23:12:22.259Z,98957.31
2022-10-19T23:14:48.733Z,98950.03
2022-10-19T23:17:15.344Z,98951.22
2022-10-19T23:19:41.881Z,98947.47
2022-10-19T23:22:08.267Z,98948.06
2022-10-19T23:24:34.623Z,98942.44
2022-10-19T23:27:01.016Z,98939.41
2022-10-19T23:29:27.443Z,98928.59
2022-10-19T23:31:53.840Z,98929.72
2022-10-19T23:34:20.159Z,98924.84
2022-10-19T23:36:47.763Z,98922.13
2022-10-19T23:39:14.427Z,98922.13
2022-10-19T23:41:40.827Z,98921.31
2022-10-19T23:44:09.340Z,98925.16
2022-10-19T23:46:35.843Z,98919.50
2022-10-19T23:49:02.231Z,98928.78
2022-10-19T23:51:28.600Z,98925.53
2022-10-19T23:53:55.125Z,98927.75
2022-10-19T23:56:24.913Z,98918.28
2022-10-19T23:58:52.447Z,98922.88
